sensor_id;sensor_type;location;lat;lon;timestamp;P1;durP1;ratioP1;P2;durP2;ratioP2
5878;SDS011;2965;42.640;23.370;2023-12-14T06:56:57;19.77;;;13.27;;
5878;SDS011;2965;42.640;23.370;2023-12-14T06:59:22;21.57;;;13.60;;
5878;SDS011;2965;42.640;23.370;2023-12-14T07:01:49;14.77;;;11.63;;
5878;SDS011;2965;42.640;23.370;2023-12-14T07:04:14;16.70;;;12.00;;
5878;SDS011;2965;42.640;23.370;2023-12-14T07:06:40;19.30;;;12.57;;
5878;SDS011;2965;42.640;23.370;2023-12-14T07:09:05;16.93;;;11.50;;
5878;SDS011;2965;42.640;23.370;2023-12-14T07:11:31;15.03;;;11.90;;
5878;SDS011;2965;42.640;23.370;2023-12-14T07:13:57;19.00;;;11.83;;
5878;SDS011;2965;42.640;23.370;2023-12-14T07:16:22;18.67;;;11.83;;
5878;SDS011;2965;42.640;23.370;2023-12-14T07:18:48;16.07;;;11.47;;
5878;SDS011;2965;42.640;23.370;2023-12-14T07:21:13;20.90;;;13.13;;
5878;SDS011;2965;42.640;23.370;2023-12-14T07:23:39;40.20;;;14.23;;
5878;SDS011;2965;42.640;23.370;2023-12-14T07:26:04;24.13;;;14.87;;
5878;SDS011;2965;42.640;23.370;2023-12-14T07:28:30;20.57;;;12.50;;
5878;SDS011;2965;42.640;23.370;2023-12-14T07:30:55;24.30;;;14.70;;
5878;SDS011;2965;42.640;23.370;2023-12-14T07:33:20;16.43;;;12.80;;
5878;SDS011;2965;42.640;23.370;2023-12-14T07:35:46;16.47;;;12.03;;
5878;SDS011;2965;42.640;23.370;2023-12-14T07:38:12;17.40;;;11.40;;
5878;SDS011;2965;42.640;23.370;2023-12-14T07:40:37;19.27;;;11.60;;
5878;SDS011;2965;42.640;23.370;2023-12-14T07:43:06;17.13;;;11.40;;
5878;SDS011;2965;42.640;23.370;2023-12-14T07:45:32;19.13;;;10.90;;
5878;SDS011;2965;42.640;23.370;2023-12-14T07:47:59;17.50;;;11.77;;
5878;SDS011;2965;42.640;23.370;2023-12-14T07:50:25;16.00;;;11.23;;
5878;SDS011;2965;42.640;23.370;2023-12-14T07:52:51;25.27;;;11.30;;
5878;SDS011;2965;42.640;23.370;2023-12-14T07:55:17;13.47;;;10.57;;
5878;SDS011;2965;42.640;23.370;2023-12-14T07:57:43;14.60;;;10.60;;
5878;SDS011;2965;42.640;23.370;2023-12-14T08:00:09;17.93;;;10.77;;
5878;SDS011;2965;42.640;23.370;2023-12-14T08:02:35;15.37;;;12.17;;
5878;SDS011;2965;42.640;23.370;2023-12-14T08:05:01;12.80;;;9.33;;
5878;SDS011;2965;42.640;23.370;2023-12-14T08:07:26;12.97;;;9.97;;
5878;SDS011;2965;42.640;23.370;2023-12-14T08:09:57;11.23;;;9.17;;
5878;SDS011;2965;42.640;23.370;2023-12-14T08:12:23;9.83;;;8.27;;
5878;SDS011;2965;42.640;23.370;2023-12-14T08:14:50;13.30;;;8.37;;
5878;SDS011;2965;42.640;23.370;2023-12-14T08:17:15;11.47;;;8.40;;
5878;SDS011;2965;42.640;23.370;2023-12-14T08:19:41;14.30;;;8.33;;
5878;SDS011;2965;42.640;23.370;2023-12-14T08:22:07;13.50;;;8.03;;
5878;SDS011;2965;42.640;23.370;2023-12-14T08:24:36;8.70;;;7.80;;
5878;SDS011;2965;42.640;23.370;2023-12-14T08:27:02;11.77;;;7.80;;
5878;SDS011;2965;42.640;23.370;2023-12-14T08:29:28;11.27;;;8.70;;
5878;SDS011;2965;42.640;23.370;2023-12-14T08:31:54;9.77;;;7.90;;
5878;SDS011;2965;42.640;23.370;2023-12-14T08:34:22;10.07;;;8.60;;
5878;SDS011;2965;42.640;23.370;2023-12-14T08:36:48;12.40;;;8.03;;
5878;SDS011;2965;42.640;23.370;2023-12-14T08:39:14;10.07;;;8.40;;
5878;SDS011;2965;42.640;23.370;2023-12-14T08:41:39;12.17;;;9.43;;
5878;SDS011;2965;42.640;23.370;2023-12-14T08:44:06;15.63;;;9.37;;
5878;SDS011;2965;42.640;23.370;2023-12-14T08:46:41;11.80;;;7.50;;
5878;SDS011;2965;42.640;23.370;2023-12-14T08:49:07;12.73;;;8.60;;
5878;SDS011;2965;42.640;23.370;2023-12-14T08:51:36;9.60;;;8.13;;
5878;SDS011;2965;42.640;23.370;2023-12-14T08:54:01;11.80;;;9.07;;
5878;SDS011;2965;42.640;23.370;2023-12-14T08:56:27;17.23;;;8.17;;
5878;SDS011;2965;42.640;23.370;2023-12-14T08:58:54;10.80;;;8.33;;
5878;SDS011;2965;42.640;23.370;2023-12-14T09:01:20;10.13;;;8.60;;
5878;SDS011;2965;42.640;23.370;2023-12-14T09:03:48;9.20;;;7.40;;
5878;SDS011;2965;42.640;23.370;2023-12-14T09:06:16;9.40;;;6.80;;
5878;SDS011;2965;42.640;23.370;2023-12-14T09:08:42;6.63;;;6.03;;
5878;SDS011;2965;42.640;23.370;2023-12-14T09:11:09;8.43;;;7.50;;
5878;SDS011;2965;42.640;23.370;2023-12-14T09:13:34;8.00;;;6.97;;
5878;SDS011;2965;42.640;23.370;2023-12-14T09:16:00;7.10;;;6.50;;
5878;SDS011;2965;42.640;23.370;2023-12-14T09:18:25;7.07;;;6.47;;
5878;SDS011;2965;42.640;23.370;2023-12-14T09:20:51;7.67;;;6.87;;
5878;SDS011;2965;42.640;23.370;2023-12-14T09:23:16;6.90;;;6.30;;
5878;SDS011;2965;42.640;23.370;2023-12-14T09:25:44;6.97;;;6.37;;
5878;SDS011;2965;42.640;23.370;2023-12-14T09:28:10;11.23;;;6.10;;
5878;SDS011;2965;42.640;23.370;2023-12-14T09:30:36;6.27;;;5.70;;
5878;SDS011;2965;42.640;23.370;2023-12-14T09:33:01;7.23;;;6.57;;
5878;SDS011;2965;42.640;23.370;2023-12-14T09:35:27;12.23;;;6.90;;
5878;SDS011;2965;42.640;23.370;2023-12-14T09:37:52;7.37;;;6.67;;
5878;SDS011;2965;42.640;23.370;2023-12-14T09:40:18;8.43;;;7.53;;
5878;SDS011;2965;42.640;23.370;2023-12-14T09:42:44;7.93;;;6.70;;
5878;SDS011;2965;42.640;23.370;2023-12-14T09:45:10;6.97;;;6.37;;
5878;SDS011;2965;42.640;23.370;2023-12-14T09:47:36;7.20;;;6.57;;
5878;SDS011;2965;42.640;23.370;2023-12-14T09:50:03;9.13;;;7.10;;
5878;SDS011;2965;42.640;23.370;2023-12-14T09:52:30;7.57;;;6.77;;
5878;SDS011;2965;42.640;23.370;2023-12-14T09:54:56;11.40;;;7.40;;
5878;SDS011;2965;42.640;23.370;2023-12-14T09:57:21;8.00;;;7.20;;
5878;SDS011;2965;42.640;23.370;2023-12-14T09:59:54;6.90;;;6.30;;
5878;SDS011;2965;42.640;23.370;2023-12-14T10:02:24;13.17;;;8.30;;
5878;SDS011;2965;42.640;23.370;2023-12-14T10:04:51;12.63;;;7.60;;
5878;SDS011;2965;42.640;23.370;2023-12-14T10:07:17;14.97;;;7.47;;
5878;SDS011;2965;42.640;23.370;2023-12-14T10:09:43;7.90;;;7.03;;
5878;SDS011;2965;42.640;23.370;2023-12-14T10:12:09;8.93;;;6.93;;
5878;SDS011;2965;42.640;23.370;2023-12-14T10:14:35;14.50;;;7.10;;
5878;SDS011;2965;42.640;23.370;2023-12-14T10:17:20;9.63;;;6.07;;
5878;SDS011;2965;42.640;23.370;2023-12-14T10:19:47;10.13;;;7.10;;
5878;SDS011;2965;42.640;23.370;2023-12-14T10:53:19;10.10;;;7.63;;
5878;SDS011;2965;42.640;23.370;2023-12-14T10:55:45;15.63;;;8.37;;
5878;SDS011;2965;42.640;23.370;2023-12-14T10:58:16;18.63;;;9.47;;
5878;SDS011;2965;42.640;23.370;2023-12-14T11:00:42;20.33;;;10.47;;
5878;SDS011;2965;42.640;23.370;2023-12-14T11:03:08;22.00;;;11.27;;
5878;SDS011;2965;42.640;23.370;2023-12-14T11:05:38;18.67;;;10.43;;
5878;SDS011;2965;42.640;23.370;2023-12-14T11:08:04;16.50;;;10.67;;
5878;SDS011;2965;42.640;23.370;2023-12-14T11:10:40;19.70;;;10.60;;
5878;SDS011;2965;42.640;23.370;2023-12-14T11:13:10;15.90;;;10.53;;
5878;SDS011;2965;42.640;23.370;2023-12-14T11:15:39;19.83;;;9.23;;
5878;SDS011;2965;42.640;23.370;2023-12-14T11:23:16;7.57;;;5.83;;
5878;SDS011;2965;42.640;23.370;2023-12-14T11:25:43;3.73;;;3.37;;
5878;SDS011;2965;42.640;23.370;2023-12-14T11:28:09;4.10;;;3.80;;
5878;SDS011;2965;42.640;23.370;2023-12-14T11:30:36;2.93;;;2.73;;
5878;SDS011;2965;42.640;23.370;2023-12-14T11:33:02;6.40;;;3.13;;
5878;SDS011;2965;42.640;23.370;2023-12-14T11:35:28;4.33;;;3.93;;
5878;SDS011;2965;42.640;23.370;2023-12-14T11:37:54;2.17;;;1.97;;
5878;SDS011;2965;42.640;23.370;2023-12-14T11:40:22;3.97;;;2.60;;
5878;SDS011;2965;42.640;23.370;2023-12-14T11:43:01;2.23;;;2.13;;
5878;SDS011;2965;42.640;23.370;2023-12-14T11:45:32;2.03;;;1.93;;
5878;SDS011;2965;42.640;23.370;2023-12-14T11:47:57;2.00;;;1.90;;
5878;SDS011;2965;42.640;23.370;2023-12-14T11:50:23;2.07;;;1.97;;
5878;SDS011;2965;42.640;23.370;2023-12-14T11:52:49;1.30;;;1.20;;
5878;SDS011;2965;42.640;23.370;2023-12-14T11:55:14;1.30;;;1.20;;
5878;SDS011;2965;42.640;23.370;2023-12-14T11:57:49;4.00;;;1.20;;
5878;SDS011;2965;42.640;23.370;2023-12-14T12:00:14;5.70;;;1.67;;
5878;SDS011;2965;42.640;23.370;2023-12-14T12:02:42;19.03;;;2.20;;
5878;SDS011;2965;42.640;23.370;2023-12-14T12:05:07;1.40;;;1.30;;
5878;SDS011;2965;42.640;23.370;2023-12-14T12:07:33;1.47;;;1.37;;
5878;SDS011;2965;42.640;23.370;2023-12-14T12:09:58;1.50;;;1.40;;
5878;SDS011;2965;42.640;23.370;2023-12-14T12:12:24;1.27;;;0.87;;
5878;SDS011;2965;42.640;23.370;2023-12-14T12:14:50;2.93;;;0.90;;
5878;SDS011;2965;42.640;23.370;2023-12-14T12:17:18;5.70;;;1.13;;
5878;SDS011;2965;42.640;23.370;2023-12-14T12:19:46;0.87;;;0.87;;
5878;SDS011;2965;42.640;23.370;2023-12-14T12:22:12;0.60;;;0.53;;
5878;SDS011;2965;42.640;23.370;2023-12-14T12:24:37;1.90;;;0.93;;
5878;SDS011;2965;42.640;23.370;2023-12-14T12:27:03;0.70;;;0.70;;
5878;SDS011;2965;42.640;23.370;2023-12-14T12:29:29;0.60;;;0.40;;
5878;SDS011;2965;42.640;23.370;2023-12-14T12:31:55;3.73;;;0.60;;
5878;SDS011;2965;42.640;23.370;2023-12-14T12:34:21;0.87;;;0.87;;
5878;SDS011;2965;42.640;23.370;2023-12-14T12:36:47;0.70;;;0.70;;
5878;SDS011;2965;42.640;23.370;2023-12-14T12:39:12;0.60;;;0.50;;
5878;SDS011;2965;42.640;23.370;2023-12-14T12:41:38;1.10;;;1.10;;
5878;SDS011;2965;42.640;23.370;2023-12-14T12:44:04;0.73;;;0.73;;
5878;SDS011;2965;42.640;23.370;2023-12-14T12:46:33;0.90;;;0.90;;
5878;SDS011;2965;42.640;23.370;2023-12-14T12:49:00;1.33;;;1.23;;
5878;SDS011;2965;42.640;23.370;2023-12-14T12:51:26;0.90;;;0.70;;
5878;SDS011;2965;42.640;23.370;2023-12-14T12:53:53;0.50;;;0.40;;
5878;SDS011;2965;42.640;23.370;2023-12-14T12:56:19;0.70;;;0.60;;
5878;SDS011;2965;42.640;23.370;2023-12-14T12:58:44;0.90;;;0.90;;
5878;SDS011;2965;42.640;23.370;2023-12-14T13:01:10;0.70;;;0.60;;
5878;SDS011;2965;42.640;23.370;2023-12-14T13:03:35;1.33;;;0.83;;
5878;SDS011;2965;42.640;23.370;2023-12-14T13:06:01;1.10;;;0.60;;
5878;SDS011;2965;42.640;23.370;2023-12-14T13:08:26;1.83;;;1.23;;
5878;SDS011;2965;42.640;23.370;2023-12-14T13:10:52;0.70;;;0.70;;
5878;SDS011;2965;42.640;23.370;2023-12-14T13:13:18;0.90;;;0.90;;
5878;SDS011;2965;42.640;23.370;2023-12-14T13:15:44;0.80;;;0.60;;
5878;SDS011;2965;42.640;23.370;2023-12-14T13:18:09;0.60;;;0.50;;
5878;SDS011;2965;42.640;23.370;2023-12-14T13:20:35;2.00;;;1.10;;
5878;SDS011;2965;42.640;23.370;2023-12-14T13:23:01;3.60;;;1.00;;
5878;SDS011;2965;42.640;23.370;2023-12-14T13:25:27;1.10;;;0.63;;
5878;SDS011;2965;42.640;23.370;2023-12-14T13:27:53;0.60;;;0.50;;
5878;SDS011;2965;42.640;23.370;2023-12-14T13:30:19;5.60;;;0.73;;
5878;SDS011;2965;42.640;23.370;2023-12-14T13:32:46;0.70;;;0.70;;
5878;SDS011;2965;42.640;23.370;2023-12-14T13:35:12;0.70;;;0.60;;
5878;SDS011;2965;42.640;23.370;2023-12-14T13:37:37;0.90;;;0.70;;
5878;SDS011;2965;42.640;23.370;2023-12-14T13:40:03;1.90;;;0.90;;
5878;SDS011;2965;42.640;23.370;2023-12-14T13:42:29;0.80;;;0.80;;
5878;SDS011;2965;42.640;23.370;2023-12-14T13:44:54;0.70;;;0.60;;
5878;SDS011;2965;42.640;23.370;2023-12-14T13:47:19;1.23;;;1.00;;
5878;SDS011;2965;42.640;23.370;2023-12-14T13:49:45;1.73;;;1.37;;
5878;SDS011;2965;42.640;23.370;2023-12-14T13:52:11;1.00;;;1.00;;
5878;SDS011;2965;42.640;23.370;2023-12-14T13:54:37;7.13;;;1.10;;
5878;SDS011;2965;42.640;23.370;2023-12-14T13:57:02;0.60;;;0.60;;
5878;SDS011;2965;42.640;23.370;2023-12-14T13:59:28;0.90;;;0.90;;
5878;SDS011;2965;42.640;23.370;2023-12-14T14:01:54;1.00;;;1.00;;
5878;SDS011;2965;42.640;23.370;2023-12-14T14:04:19;2.40;;;1.23;;
5878;SDS011;2965;42.640;23.370;2023-12-14T14:06:45;4.60;;;0.93;;
5878;SDS011;2965;42.640;23.370;2023-12-14T14:09:11;1.00;;;0.77;;
5878;SDS011;2965;42.640;23.370;2023-12-14T14:11:37;1.17;;;0.87;;
5878;SDS011;2965;42.640;23.370;2023-12-14T14:14:02;1.37;;;1.27;;
5878;SDS011;2965;42.640;23.370;2023-12-14T14:16:29;1.10;;;1.10;;
5878;SDS011;2965;42.640;23.370;2023-12-14T14:18:54;1.40;;;1.30;;
5878;SDS011;2965;42.640;23.370;2023-12-14T14:21:20;14.70;;;0.90;;
5878;SDS011;2965;42.640;23.370;2023-12-14T14:23:45;0.70;;;0.70;;
5878;SDS011;2965;42.640;23.370;2023-12-14T14:26:11;1.30;;;0.70;;
5878;SDS011;2965;42.640;23.370;2023-12-14T14:28:36;1.13;;;1.03;;
5878;SDS011;2965;42.640;23.370;2023-12-14T14:31:02;3.07;;;1.13;;
5878;SDS011;2965;42.640;23.370;2023-12-14T14:33:27;1.17;;;0.90;;
5878;SDS011;2965;42.640;23.370;2023-12-14T14:35:53;0.80;;;0.80;;
5878;SDS011;2965;42.640;23.370;2023-12-14T14:38:18;7.33;;;1.60;;
5878;SDS011;2965;42.640;23.370;2023-12-14T14:40:44;2.40;;;1.47;;
5878;SDS011;2965;42.640;23.370;2023-12-14T14:43:10;4.93;;;1.57;;
5878;SDS011;2965;42.640;23.370;2023-12-14T14:45:36;1.73;;;1.10;;
5878;SDS011;2965;42.640;23.370;2023-12-14T14:48:05;1.67;;;1.10;;
5878;SDS011;2965;42.640;23.370;2023-12-14T14:50:34;1.10;;;0.87;;
5878;SDS011;2965;42.640;23.370;2023-12-14T14:52:59;2.23;;;0.60;;
5878;SDS011;2965;42.640;23.370;2023-12-14T14:55:25;0.60;;;0.50;;
5878;SDS011;2965;42.640;23.370;2023-12-14T14:57:51;0.80;;;0.80;;
5878;SDS011;2965;42.640;23.370;2023-12-14T15:00:17;1.20;;;1.10;;
5878;SDS011;2965;42.640;23.370;2023-12-14T15:02:43;1.00;;;1.00;;
5878;SDS011;2965;42.640;23.370;2023-12-14T15:05:09;2.03;;;1.30;;
5878;SDS011;2965;42.640;23.370;2023-12-14T15:07:34;1.60;;;1.50;;
5878;SDS011;2965;42.640;23.370;2023-12-14T15:10:00;1.23;;;1.13;;
5878;SDS011;2965;42.640;23.370;2023-12-14T15:12:25;1.60;;;0.77;;
5878;SDS011;2965;42.640;23.370;2023-12-14T15:14:51;2.13;;;0.97;;
5878;SDS011;2965;42.640;23.370;2023-12-14T15:17:16;2.63;;;1.10;;
5878;SDS011;2965;42.640;23.370;2023-12-14T15:19:44;1.67;;;1.10;;
5878;SDS011;2965;42.640;23.370;2023-12-14T15:22:12;1.73;;;1.00;;
5878;SDS011;2965;42.640;23.370;2023-12-14T15:24:38;1.90;;;1.20;;
5878;SDS011;2965;42.640;23.370;2023-12-14T15:27:04;3.20;;;1.30;;
5878;SDS011;2965;42.640;23.370;2023-12-14T15:29:30;3.03;;;1.20;;
5878;SDS011;2965;42.640;23.370;2023-12-14T15:31:55;2.73;;;1.40;;
5878;SDS011;2965;42.640;23.370;2023-12-14T15:34:21;3.63;;;0.80;;
5878;SDS011;2965;42.640;23.370;2023-12-14T15:36:46;1.70;;;1.60;;
5878;SDS011;2965;42.640;23.370;2023-12-14T15:39:12;2.13;;;1.93;;
5878;SDS011;2965;42.640;23.370;2023-12-14T15:41:37;2.23;;;2.13;;
5878;SDS011;2965;42.640;23.370;2023-12-14T15:44:02;2.03;;;1.93;;
5878;SDS011;2965;42.640;23.370;2023-12-14T15:46:28;3.30;;;3.07;;
5878;SDS011;2965;42.640;23.370;2023-12-14T15:48:54;3.93;;;3.07;;
5878;SDS011;2965;42.640;23.370;2023-12-14T15:51:19;2.77;;;2.60;;
5878;SDS011;2965;42.640;23.370;2023-12-14T15:53:45;4.30;;;3.90;;
5878;SDS011;2965;42.640;23.370;2023-12-14T15:56:10;4.37;;;3.13;;
5878;SDS011;2965;42.640;23.370;2023-12-14T15:58:36;4.90;;;2.40;;
5878;SDS011;2965;42.640;23.370;2023-12-14T16:01:01;6.57;;;2.33;;
5878;SDS011;2965;42.640;23.370;2023-12-14T16:03:27;1.57;;;1.47;;
5878;SDS011;2965;42.640;23.370;2023-12-14T16:05:53;1.60;;;1.50;;
5878;SDS011;2965;42.640;23.370;2023-12-14T16:08:18;1.50;;;1.40;;
5878;SDS011;2965;42.640;23.370;2023-12-14T16:10:43;1.30;;;1.20;;
5878;SDS011;2965;42.640;23.370;2023-12-14T16:13:12;10.30;;;6.23;;
5878;SDS011;2965;42.640;23.370;2023-12-14T16:15:38;2.40;;;1.50;;
5878;SDS011;2965;42.640;23.370;2023-12-14T16:18:04;1.40;;;1.30;;
5878;SDS011;2965;42.640;23.370;2023-12-14T16:20:30;1.70;;;1.60;;
5878;SDS011;2965;42.640;23.370;2023-12-14T16:22:55;1.43;;;1.33;;
5878;SDS011;2965;42.640;23.370;2023-12-14T16:25:21;1.60;;;1.50;;
5878;SDS011;2965;42.640;23.370;2023-12-14T16:27:46;1.97;;;1.83;;
5878;SDS011;2965;42.640;23.370;2023-12-14T16:30:12;1.73;;;0.73;;
5878;SDS011;2965;42.640;23.370;2023-12-14T16:32:38;1.93;;;1.83;;
5878;SDS011;2965;42.640;23.370;2023-12-14T16:35:04;2.80;;;1.50;;
5878;SDS011;2965;42.640;23.370;2023-12-14T16:37:31;1.60;;;1.50;;
5878;SDS011;2965;42.640;23.370;2023-12-14T16:39:57;1.90;;;1.80;;
5878;SDS011;2965;42.640;23.370;2023-12-14T16:42:23;2.30;;;1.83;;
5878;SDS011;2965;42.640;23.370;2023-12-14T16:44:49;1.33;;;1.23;;
5878;SDS011;2965;42.640;23.370;2023-12-14T16:47:14;2.10;;;2.00;;
5878;SDS011;2965;42.640;23.370;2023-12-14T16:49:40;2.90;;;2.70;;
5878;SDS011;2965;42.640;23.370;2023-12-14T16:52:06;1.50;;;1.40;;
5878;SDS011;2965;42.640;23.370;2023-12-14T16:54:31;0.93;;;0.90;;
5878;SDS011;2965;42.640;23.370;2023-12-14T16:56:57;2.40;;;2.30;;
5878;SDS011;2965;42.640;23.370;2023-12-14T16:59:23;2.37;;;2.17;;
5878;SDS011;2965;42.640;23.370;2023-12-14T17:01:49;2.00;;;1.90;;
5878;SDS011;2965;42.640;23.370;2023-12-14T17:04:15;1.87;;;1.70;;
5878;SDS011;2965;42.640;23.370;2023-12-14T17:06:40;2.00;;;1.90;;
5878;SDS011;2965;42.640;23.370;2023-12-14T17:09:07;2.33;;;1.27;;
5878;SDS011;2965;42.640;23.370;2023-12-14T17:11:33;1.93;;;1.77;;
5878;SDS011;2965;42.640;23.370;2023-12-14T17:13:58;1.97;;;1.80;;
5878;SDS011;2965;42.640;23.370;2023-12-14T17:16:24;1.97;;;1.87;;
5878;SDS011;2965;42.640;23.370;2023-12-14T17:18:50;1.93;;;1.63;;
5878;SDS011;2965;42.640;23.370;2023-12-14T17:21:16;2.03;;;1.90;;
5878;SDS011;2965;42.640;23.370;2023-12-14T17:23:45;1.93;;;1.83;;
5878;SDS011;2965;42.640;23.370;2023-12-14T17:26:12;2.00;;;1.90;;
5878;SDS011;2965;42.640;23.370;2023-12-14T17:28:39;2.20;;;2.00;;
5878;SDS011;2965;42.640;23.370;2023-12-14T17:31:18;2.27;;;2.17;;
5878;SDS011;2965;42.640;23.370;2023-12-14T17:33:45;2.50;;;2.30;;
5878;SDS011;2965;42.640;23.370;2023-12-14T18:11:20;5.90;;;2.20;;
5878;SDS011;2965;42.640;23.370;2023-12-14T18:13:46;2.73;;;2.63;;
5878;SDS011;2965;42.640;23.370;2023-12-14T18:16:11;2.60;;;2.30;;
5878;SDS011;2965;42.640;23.370;2023-12-14T18:18:37;2.50;;;2.40;;
5878;SDS011;2965;42.640;23.370;2023-12-14T18:21:02;2.10;;;2.00;;
5878;SDS011;2965;42.640;23.370;2023-12-14T18:23:30;2.70;;;2.50;;
5878;SDS011;2965;42.640;23.370;2023-12-14T18:25:55;2.00;;;1.90;;
5878;SDS011;2965;42.640;23.370;2023-12-14T18:28:21;1.97;;;1.87;;
5878;SDS011;2965;42.640;23.370;2023-12-14T18:30:47;2.53;;;2.33;;
5878;SDS011;2965;42.640;23.370;2023-12-14T18:33:12;2.50;;;2.40;;
5878;SDS011;2965;42.640;23.370;2023-12-14T18:35:38;2.10;;;2.00;;
5878;SDS011;2965;42.640;23.370;2023-12-14T18:38:03;8.27;;;2.17;;
5878;SDS011;2965;42.640;23.370;2023-12-14T18:40:29;3.03;;;2.80;;
5878;SDS011;2965;42.640;23.370;2023-12-14T18:42:54;4.93;;;4.60;;
5878;SDS011;2965;42.640;23.370;2023-12-14T18:45:20;2.70;;;2.60;;
5878;SDS011;2965;42.640;23.370;2023-12-14T18:47:46;2.50;;;2.40;;
5878;SDS011;2965;42.640;23.370;2023-12-14T18:50:11;2.27;;;2.17;;
5878;SDS011;2965;42.640;23.370;2023-12-14T18:52:37;2.37;;;2.27;;
5878;SDS011;2965;42.640;23.370;2023-12-14T18:55:03;2.10;;;2.00;;
5878;SDS011;2965;42.640;23.370;2023-12-14T18:57:29;3.00;;;2.80;;
5878;SDS011;2965;42.640;23.370;2023-12-14T18:59:55;3.70;;;3.50;;
5878;SDS011;2965;42.640;23.370;2023-12-14T19:02:21;2.10;;;2.00;;
5878;SDS011;2965;42.640;23.370;2023-12-14T19:04:51;2.50;;;2.40;;
5878;SDS011;2965;42.640;23.370;2023-12-14T19:07:16;2.77;;;2.67;;
5878;SDS011;2965;42.640;23.370;2023-12-14T19:09:42;2.80;;;2.70;;
5878;SDS011;2965;42.640;23.370;2023-12-14T19:12:08;2.13;;;2.03;;
5878;SDS011;2965;42.640;23.370;2023-12-14T19:14:34;2.80;;;2.70;;
5878;SDS011;2965;42.640;23.370;2023-12-14T19:17:00;2.77;;;2.57;;
5878;SDS011;2965;42.640;23.370;2023-12-14T19:19:25;2.53;;;2.43;;
5878;SDS011;2965;42.640;23.370;2023-12-14T19:21:54;2.57;;;2.47;;
5878;SDS011;2965;42.640;23.370;2023-12-14T19:24:20;2.90;;;2.80;;
5878;SDS011;2965;42.640;23.370;2023-12-14T19:26:45;3.10;;;2.30;;
5878;SDS011;2965;42.640;23.370;2023-12-14T19:29:11;1.90;;;1.80;;
5878;SDS011;2965;42.640;23.370;2023-12-14T19:31:36;2.20;;;2.10;;
5878;SDS011;2965;42.640;23.370;2023-12-14T19:34:02;2.77;;;2.60;;
5878;SDS011;2965;42.640;23.370;2023-12-14T19:36:28;2.23;;;2.13;;
5878;SDS011;2965;42.640;23.370;2023-12-14T19:38:53;1.77;;;1.67;;
5878;SDS011;2965;42.640;23.370;2023-12-14T19:41:19;2.00;;;1.80;;
5878;SDS011;2965;42.640;23.370;2023-12-14T19:43:45;1.60;;;1.50;;
5878;SDS011;2965;42.640;23.370;2023-12-14T19:46:12;2.07;;;1.97;;
5878;SDS011;2965;42.640;23.370;2023-12-14T19:48:39;2.60;;;2.50;;
5878;SDS011;2965;42.640;23.370;2023-12-14T19:51:06;1.70;;;1.70;;
5878;SDS011;2965;42.640;23.370;2023-12-14T19:53:31;1.90;;;1.80;;
5878;SDS011;2965;42.640;23.370;2023-12-14T19:55:57;1.87;;;1.77;;
5878;SDS011;2965;42.640;23.370;2023-12-14T19:58:22;1.80;;;1.70;;
5878;SDS011;2965;42.640;23.370;2023-12-14T20:00:48;2.63;;;2.50;;
5878;SDS011;2965;42.640;23.370;2023-12-14T20:03:13;1.63;;;1.53;;
5878;SDS011;2965;42.640;23.370;2023-12-14T20:05:39;6.50;;;2.10;;
5878;SDS011;2965;42.640;23.370;2023-12-14T20:08:08;4.40;;;1.63;;
5878;SDS011;2965;42.640;23.370;2023-12-14T20:10:36;4.23;;;1.70;;
5878;SDS011;2965;42.640;23.370;2023-12-14T20:13:02;6.30;;;1.87;;
5878;SDS011;2965;42.640;23.370;2023-12-14T20:15:31;2.03;;;1.93;;
5878;SDS011;2965;42.640;23.370;2023-12-14T20:17:57;2.23;;;1.60;;
5878;SDS011;2965;42.640;23.370;2023-12-14T20:20:22;1.63;;;1.53;;
5878;SDS011;2965;42.640;23.370;2023-12-14T20:22:48;1.20;;;1.20;;
5878;SDS011;2965;42.640;23.370;2023-12-14T20:25:13;2.10;;;2.00;;
5878;SDS011;2965;42.640;23.370;2023-12-14T20:27:38;1.53;;;1.43;;
5878;SDS011;2965;42.640;23.370;2023-12-14T20:30:05;1.90;;;1.37;;
5878;SDS011;2965;42.640;23.370;2023-12-14T20:32:30;1.63;;;1.53;;
5878;SDS011;2965;42.640;23.370;2023-12-14T20:34:56;1.10;;;1.10;;
5878;SDS011;2965;42.640;23.370;2023-12-14T20:37:21;1.40;;;1.30;;
5878;SDS011;2965;42.640;23.370;2023-12-14T20:39:50;3.53;;;0.90;;
5878;SDS011;2965;42.640;23.370;2023-12-14T20:42:17;0.93;;;0.93;;
5878;SDS011;2965;42.640;23.370;2023-12-14T20:44:42;0.63;;;0.63;;
5878;SDS011;2965;42.640;23.370;2023-12-14T20:47:08;0.70;;;0.70;;
5878;SDS011;2965;42.640;23.370;2023-12-14T20:49:34;0.60;;;0.50;;
5878;SDS011;2965;42.640;23.370;2023-12-14T20:51:59;0.73;;;0.73;;
5878;SDS011;2965;42.640;23.370;2023-12-14T20:54:25;2.13;;;2.03;;
5878;SDS011;2965;42.640;23.370;2023-12-14T20:56:50;0.70;;;0.70;;
5878;SDS011;2965;42.640;23.370;2023-12-14T20:59:16;0.60;;;0.43;;
5878;SDS011;2965;42.640;23.370;2023-12-14T21:01:41;0.60;;;0.60;;
5878;SDS011;2965;42.640;23.370;2023-12-14T21:04:07;2.40;;;0.53;;
5878;SDS011;2965;42.640;23.370;2023-12-14T21:06:32;0.50;;;0.50;;
5878;SDS011;2965;42.640;23.370;2023-12-14T21:08:58;2.83;;;0.60;;
5878;SDS011;2965;42.640;23.370;2023-12-14T21:11:23;0.50;;;0.40;;
5878;SDS011;2965;42.640;23.370;2023-12-14T21:13:50;0.53;;;0.40;;
5878;SDS011;2965;42.640;23.370;2023-12-14T21:16:16;0.50;;;0.40;;
5878;SDS011;2965;42.640;23.370;2023-12-14T21:18:42;0.70;;;0.70;;
5878;SDS011;2965;42.640;23.370;2023-12-14T21:21:10;0.60;;;0.50;;
5878;SDS011;2965;42.640;23.370;2023-12-14T21:23:35;0.70;;;0.70;;
5878;SDS011;2965;42.640;23.370;2023-12-14T21:26:01;0.60;;;0.60;;
5878;SDS011;2965;42.640;23.370;2023-12-14T21:28:29;0.93;;;0.83;;
5878;SDS011;2965;42.640;23.370;2023-12-14T21:30:56;1.83;;;0.70;;
5878;SDS011;2965;42.640;23.370;2023-12-14T21:33:22;0.70;;;0.70;;
5878;SDS011;2965;42.640;23.370;2023-12-14T21:35:48;1.10;;;1.00;;
5878;SDS011;2965;42.640;23.370;2023-12-14T21:38:13;0.70;;;0.70;;
5878;SDS011;2965;42.640;23.370;2023-12-14T21:40:39;0.70;;;0.70;;
5878;SDS011;2965;42.640;23.370;2023-12-14T21:43:04;1.33;;;1.00;;
5878;SDS011;2965;42.640;23.370;2023-12-14T21:45:30;1.10;;;1.00;;
5878;SDS011;2965;42.640;23.370;2023-12-14T21:47:56;0.80;;;0.80;;
5878;SDS011;2965;42.640;23.370;2023-12-14T21:50:21;1.73;;;1.07;;
5878;SDS011;2965;42.640;23.370;2023-12-14T21:52:46;0.80;;;0.80;;
5878;SDS011;2965;42.640;23.370;2023-12-14T21:55:12;0.70;;;0.70;;
5878;SDS011;2965;42.640;23.370;2023-12-14T21:57:38;1.10;;;1.00;;
5878;SDS011;2965;42.640;23.370;2023-12-14T22:00:03;1.20;;;1.00;;
5878;SDS011;2965;42.640;23.370;2023-12-14T22:02:29;1.10;;;0.80;;
5878;SDS011;2965;42.640;23.370;2023-12-14T22:04:55;0.90;;;0.73;;
5878;SDS011;2965;42.640;23.370;2023-12-14T22:07:21;2.93;;;1.10;;
5878;SDS011;2965;42.640;23.370;2023-12-14T22:09:46;1.20;;;1.10;;
5878;SDS011;2965;42.640;23.370;2023-12-14T22:12:11;0.80;;;0.80;;
5878;SDS011;2965;42.640;23.370;2023-12-14T22:14:37;0.70;;;0.70;;
5878;SDS011;2965;42.640;23.370;2023-12-14T22:17:02;0.90;;;0.90;;
5878;SDS011;2965;42.640;23.370;2023-12-14T22:19:30;0.83;;;0.83;;
5878;SDS011;2965;42.640;23.370;2023-12-14T22:22:01;0.70;;;0.70;;
5878;SDS011;2965;42.640;23.370;2023-12-14T22:24:28;1.23;;;0.83;;
